sensor_id;sensor_type;location;lat;lon;timestamp;temperature;humidity
63317;DHT22;49822;41.468;13.560;2023-03-08T00:00:13;11.20;82.80
63317;DHT22;49822;41.468;13.560;2023-03-08T00:02:41;11.20;82.70
63317;DHT22;49822;41.468;13.560;2023-03-08T00:05:09;11.10;83.10
63317;DHT22;49822;41.468;13.560;2023-03-08T00:07:37;11.20;83.20
63317;DHT22;49822;41.468;13.560;2023-03-08T00:10:05;11.10;82.70
63317;DHT22;49822;41.468;13.560;2023-03-08T00:12:32;11.20;83.20
63317;DHT22;49822;41.468;13.560;2023-03-08T00:15:00;11.20;83.10
63317;DHT22;49822;41.468;13.560;2023-03-08T00:17:27;11.20;83.20
63317;DHT22;49822;41.468;13.560;2023-03-08T00:19:55;11.20;83.60
63317;DHT22;49822;41.468;13.560;2023-03-08T00:22:23;11.10;83.70
63317;DHT22;49822;41.468;13.560;2023-03-08T00:24:52;11.10;84.20
63317;DHT22;49822;41.468;13.560;2023-03-08T00:27:19;11.20;83.70
63317;DHT22;49822;41.468;13.560;2023-03-08T00:29:46;11.20;83.70
63317;DHT22;49822;41.468;13.560;2023-03-08T00:32:14;11.10;83.90
63317;DHT22;49822;41.468;13.560;2023-03-08T00:34:43;11.10;83.70
63317;DHT22;49822;41.468;13.560;2023-03-08T00:37:13;11.20;83.90
63317;DHT22;49822;41.468;13.560;2023-03-08T00:39:40;11.20;83.50
63317;DHT22;49822;41.468;13.560;2023-03-08T00:42:08;11.20;83.90
63317;DHT22;49822;41.468;13.560;2023-03-08T00:44:35;11.10;83.80
63317;DHT22;49822;41.468;13.560;2023-03-08T00:47:04;11.10;84.00
63317;DHT22;49822;41.468;13.560;2023-03-08T00:49:31;11.20;85.00
63317;DHT22;49822;41.468;13.560;2023-03-08T00:51:59;11.10;84.80
63317;DHT22;49822;41.468;13.560;2023-03-08T00:54:26;11.00;85.20
63317;DHT22;49822;41.468;13.560;2023-03-08T00:56:56;11.00;85.30
63317;DHT22;49822;41.468;13.560;2023-03-08T00:59:23;10.90;85.30
63317;DHT22;49822;41.468;13.560;2023-03-08T01:01:51;10.90;85.40
63317;DHT22;49822;41.468;13.560;2023-03-08T01:04:19;11.00;86.20
63317;DHT22;49822;41.468;13.560;2023-03-08T01:06:46;10.90;86.30
63317;DHT22;49822;41.468;13.560;2023-03-08T01:09:14;10.80;85.90
63317;DHT22;49822;41.468;13.560;2023-03-08T01:11:41;10.80;86.50
63317;DHT22;49822;41.468;13.560;2023-03-08T01:14:12;10.70;86.70
63317;DHT22;49822;41.468;13.560;2023-03-08T01:16:40;10.70;86.80
63317;DHT22;49822;41.468;13.560;2023-03-08T01:19:09;10.70;86.60
63317;DHT22;49822;41.468;13.560;2023-03-08T01:21:37;10.70;86.50
63317;DHT22;49822;41.468;13.560;2023-03-08T01:24:05;10.80;86.60
63317;DHT22;49822;41.468;13.560;2023-03-08T01:26:32;10.80;87.10
63317;DHT22;49822;41.468;13.560;2023-03-08T01:29:00;10.60;87.80
63317;DHT22;49822;41.468;13.560;2023-03-08T01:31:29;10.50;87.50
63317;DHT22;49822;41.468;13.560;2023-03-08T01:33:58;10.70;87.40
63317;DHT22;49822;41.468;13.560;2023-03-08T01:36:26;10.70;87.70
63317;DHT22;49822;41.468;13.560;2023-03-08T01:38:54;10.70;87.70
63317;DHT22;49822;41.468;13.560;2023-03-08T01:41:26;10.60;87.70
63317;DHT22;49822;41.468;13.560;2023-03-08T01:43:54;10.70;87.20
63317;DHT22;49822;41.468;13.560;2023-03-08T01:48:57;10.70;87.80
63317;DHT22;49822;41.468;13.560;2023-03-08T01:54:04;10.70;87.50
63317;DHT22;49822;41.468;13.560;2023-03-08T01:56:33;10.70;87.50
63317;DHT22;49822;41.468;13.560;2023-03-08T01:59:02;10.70;87.70
63317;DHT22;49822;41.468;13.560;2023-03-08T02:01:30;10.60;87.90
63317;DHT22;49822;41.468;13.560;2023-03-08T02:03:58;10.60;88.40
63317;DHT22;49822;41.468;13.560;2023-03-08T02:06:27;10.40;89.20
63317;DHT22;49822;41.468;13.560;2023-03-08T02:08:55;10.30;89.60
63317;DHT22;49822;41.468;13.560;2023-03-08T02:11:24;10.20;89.60
63317;DHT22;49822;41.468;13.560;2023-03-08T02:13:56;10.10;90.00
63317;DHT22;49822;41.468;13.560;2023-03-08T02:16:23;10.10;90.40
63317;DHT22;49822;41.468;13.560;2023-03-08T02:18:57;10.20;89.90
63317;DHT22;49822;41.468;13.560;2023-03-08T02:21:26;10.30;90.00
63317;DHT22;49822;41.468;13.560;2023-03-08T02:23:55;10.30;89.50
63317;DHT22;49822;41.468;13.560;2023-03-08T02:26:22;10.40;89.00
63317;DHT22;49822;41.468;13.560;2023-03-08T02:28:50;10.40;89.40
63317;DHT22;49822;41.468;13.560;2023-03-08T02:31:20;10.50;89.00
63317;DHT22;49822;41.468;13.560;2023-03-08T02:33:47;10.50;89.00
63317;DHT22;49822;41.468;13.560;2023-03-08T02:36:15;10.60;89.10
63317;DHT22;49822;41.468;13.560;2023-03-08T02:38:42;10.60;88.70
63317;DHT22;49822;41.468;13.560;2023-03-08T02:41:09;10.60;89.40
63317;DHT22;49822;41.468;13.560;2023-03-08T02:43:37;10.60;89.20
63317;DHT22;49822;41.468;13.560;2023-03-08T02:46:05;10.50;89.10
63317;DHT22;49822;41.468;13.560;2023-03-08T02:48:33;10.50;89.20
63317;DHT22;49822;41.468;13.560;2023-03-08T02:51:01;10.60;88.70
63317;DHT22;49822;41.468;13.560;2023-03-08T02:53:29;10.60;88.80
63317;DHT22;49822;41.468;13.560;2023-03-08T02:55:58;10.60;88.80
63317;DHT22;49822;41.468;13.560;2023-03-08T02:58:25;10.70;88.70
63317;DHT22;49822;41.468;13.560;2023-03-08T03:00:53;10.60;88.40
63317;DHT22;49822;41.468;13.560;2023-03-08T03:03:20;10.70;88.40
63317;DHT22;49822;41.468;13.560;2023-03-08T03:05:50;10.70;88.30
63317;DHT22;49822;41.468;13.560;2023-03-08T03:08:25;10.70;88.60
63317;DHT22;49822;41.468;13.560;2023-03-08T03:10:54;10.70;88.30
63317;DHT22;49822;41.468;13.560;2023-03-08T03:13:21;10.70;88.60
63317;DHT22;49822;41.468;13.560;2023-03-08T03:15:50;10.80;88.40
63317;DHT22;49822;41.468;13.560;2023-03-08T03:18:17;10.80;88.10
63317;DHT22;49822;41.468;13.560;2023-03-08T03:20:45;10.80;88.30
63317;DHT22;49822;41.468;13.560;2023-03-08T03:23:12;10.80;88.10
63317;DHT22;49822;41.468;13.560;2023-03-08T03:25:46;10.80;88.60
63317;DHT22;49822;41.468;13.560;2023-03-08T03:28:17;10.70;88.90
63317;DHT22;49822;41.468;13.560;2023-03-08T03:30:46;10.70;88.90
63317;DHT22;49822;41.468;13.560;2023-03-08T03:33:14;10.70;89.00
63317;DHT22;49822;41.468;13.560;2023-03-08T03:35:43;10.70;89.10
63317;DHT22;49822;41.468;13.560;2023-03-08T03:38:12;10.60;88.90
63317;DHT22;49822;41.468;13.560;2023-03-08T03:40:42;10.70;88.90
63317;DHT22;49822;41.468;13.560;2023-03-08T03:43:10;10.60;88.90
63317;DHT22;49822;41.468;13.560;2023-03-08T03:45:39;10.70;89.00
63317;DHT22;49822;41.468;13.560;2023-03-08T03:48:08;10.60;89.10
63317;DHT22;49822;41.468;13.560;2023-03-08T03:50:36;10.70;88.80
63317;DHT22;49822;41.468;13.560;2023-03-08T03:53:09;10.70;89.30
63317;DHT22;49822;41.468;13.560;2023-03-08T03:55:37;10.60;89.50
63317;DHT22;49822;41.468;13.560;2023-03-08T03:58:04;10.60;89.70
63317;DHT22;49822;41.468;13.560;2023-03-08T04:00:32;10.50;89.70
63317;DHT22;49822;41.468;13.560;2023-03-08T04:03:25;10.60;89.60
63317;DHT22;49822;41.468;13.560;2023-03-08T04:05:53;10.50;90.00
63317;DHT22;49822;41.468;13.560;2023-03-08T04:08:22;10.50;89.90
63317;DHT22;49822;41.468;13.560;2023-03-08T04:10:49;10.50;89.70
63317;DHT22;49822;41.468;13.560;2023-03-08T04:13:16;10.40;89.80
63317;DHT22;49822;41.468;13.560;2023-03-08T04:15:44;10.40;89.70
63317;DHT22;49822;41.468;13.560;2023-03-08T04:18:12;10.40;90.10
63317;DHT22;49822;41.468;13.560;2023-03-08T04:20:44;10.40;90.60
63317;DHT22;49822;41.468;13.560;2023-03-08T04:23:13;10.40;89.90
63317;DHT22;49822;41.468;13.560;2023-03-08T04:25:42;10.40;90.10
63317;DHT22;49822;41.468;13.560;2023-03-08T04:28:13;10.60;89.60
63317;DHT22;49822;41.468;13.560;2023-03-08T04:30:41;10.50;89.60
63317;DHT22;49822;41.468;13.560;2023-03-08T04:33:11;10.60;89.60
63317;DHT22;49822;41.468;13.560;2023-03-08T04:35:46;10.60;89.70
63317;DHT22;49822;41.468;13.560;2023-03-08T04:38:15;10.70;89.40
63317;DHT22;49822;41.468;13.560;2023-03-08T04:40:51;10.60;89.30
63317;DHT22;49822;41.468;13.560;2023-03-08T04:43:35;10.60;90.00
63317;DHT22;49822;41.468;13.560;2023-03-08T04:46:03;10.50;90.00
63317;DHT22;49822;41.468;13.560;2023-03-08T04:48:31;10.50;89.80
63317;DHT22;49822;41.468;13.560;2023-03-08T04:51:01;10.60;89.40
63317;DHT22;49822;41.468;13.560;2023-03-08T04:53:30;10.60;89.50
63317;DHT22;49822;41.468;13.560;2023-03-08T04:56:06;10.70;89.50
63317;DHT22;49822;41.468;13.560;2023-03-08T04:58:49;10.70;89.10
63317;DHT22;49822;41.468;13.560;2023-03-08T05:01:21;10.60;89.20
63317;DHT22;49822;41.468;13.560;2023-03-08T05:03:51;10.60;89.60
63317;DHT22;49822;41.468;13.560;2023-03-08T05:06:25;10.50;90.10
63317;DHT22;49822;41.468;13.560;2023-03-08T05:08:55;10.40;89.80
63317;DHT22;49822;41.468;13.560;2023-03-08T05:11:25;10.50;89.90
63317;DHT22;49822;41.468;13.560;2023-03-08T05:13:56;10.40;90.20
63317;DHT22;49822;41.468;13.560;2023-03-08T05:16:26;10.40;90.30
63317;DHT22;49822;41.468;13.560;2023-03-08T05:18:53;10.40;89.80
63317;DHT22;49822;41.468;13.560;2023-03-08T05:21:25;10.40;90.40
63317;DHT22;49822;41.468;13.560;2023-03-08T05:23:58;10.40;90.00
63317;DHT22;49822;41.468;13.560;2023-03-08T05:26:30;10.50;90.00
63317;DHT22;49822;41.468;13.560;2023-03-08T05:29:00;10.40;89.40
63317;DHT22;49822;41.468;13.560;2023-03-08T05:31:31;10.50;89.90
63317;DHT22;49822;41.468;13.560;2023-03-08T05:34:02;10.50;90.00
63317;DHT22;49822;41.468;13.560;2023-03-08T05:36:35;10.40;89.80
63317;DHT22;49822;41.468;13.560;2023-03-08T05:39:05;10.50;89.70
63317;DHT22;49822;41.468;13.560;2023-03-08T05:41:43;10.40;89.50
63317;DHT22;49822;41.468;13.560;2023-03-08T05:44:14;10.40;89.50
63317;DHT22;49822;41.468;13.560;2023-03-08T05:46:42;10.50;89.40
63317;DHT22;49822;41.468;13.560;2023-03-08T05:49:11;10.50;89.20
63317;DHT22;49822;41.468;13.560;2023-03-08T05:51:38;10.40;90.20
63317;DHT22;49822;41.468;13.560;2023-03-08T05:54:05;10.20;91.00
63317;DHT22;49822;41.468;13.560;2023-03-08T05:56:34;10.20;90.90
63317;DHT22;49822;41.468;13.560;2023-03-08T05:59:12;10.10;91.80
63317;DHT22;49822;41.468;13.560;2023-03-08T06:01:43;10.00;92.10
63317;DHT22;49822;41.468;13.560;2023-03-08T06:04:22;9.90;92.40
63317;DHT22;49822;41.468;13.560;2023-03-08T06:06:50;10.00;92.20
63317;DHT22;49822;41.468;13.560;2023-03-08T06:09:22;10.00;92.70
63317;DHT22;49822;41.468;13.560;2023-03-08T06:11:50;10.00;92.70
63317;DHT22;49822;41.468;13.560;2023-03-08T06:14:18;10.10;92.70
63317;DHT22;49822;41.468;13.560;2023-03-08T06:16:47;10.20;92.30
63317;DHT22;49822;41.468;13.560;2023-03-08T06:19:17;10.30;92.20
63317;DHT22;49822;41.468;13.560;2023-03-08T06:21:48;10.40;91.80
63317;DHT22;49822;41.468;13.560;2023-03-08T06:24:16;10.40;91.30
63317;DHT22;49822;41.468;13.560;2023-03-08T06:26:44;10.50;91.00
63317;DHT22;49822;41.468;13.560;2023-03-08T06:29:14;10.60;90.70
63317;DHT22;49822;41.468;13.560;2023-03-08T06:31:43;10.60;90.90
63317;DHT22;49822;41.468;13.560;2023-03-08T06:34:12;10.70;90.60
63317;DHT22;49822;41.468;13.560;2023-03-08T06:36:40;10.70;90.70
63317;DHT22;49822;41.468;13.560;2023-03-08T06:39:08;10.80;90.00
63317;DHT22;49822;41.468;13.560;2023-03-08T06:41:36;10.80;90.10
63317;DHT22;49822;41.468;13.560;2023-03-08T06:44:05;10.90;89.90
63317;DHT22;49822;41.468;13.560;2023-03-08T06:46:32;11.00;90.20
63317;DHT22;49822;41.468;13.560;2023-03-08T06:49:00;11.00;90.70
63317;DHT22;49822;41.468;13.560;2023-03-08T06:51:28;11.10;90.20
63317;DHT22;49822;41.468;13.560;2023-03-08T06:53:56;11.10;89.90
63317;DHT22;49822;41.468;13.560;2023-03-08T06:56:25;11.20;89.90
63317;DHT22;49822;41.468;13.560;2023-03-08T06:58:54;11.40;90.40
63317;DHT22;49822;41.468;13.560;2023-03-08T07:01:21;11.50;90.60
63317;DHT22;49822;41.468;13.560;2023-03-08T07:03:49;11.50;89.80
63317;DHT22;49822;41.468;13.560;2023-03-08T07:06:18;11.60;90.20
63317;DHT22;49822;41.468;13.560;2023-03-08T07:08:45;11.80;89.40
63317;DHT22;49822;41.468;13.560;2023-03-08T07:11:12;12.00;89.30
63317;DHT22;49822;41.468;13.560;2023-03-08T07:13:40;12.20;89.00
63317;DHT22;49822;41.468;13.560;2023-03-08T07:16:09;12.40;88.90
63317;DHT22;49822;41.468;13.560;2023-03-08T07:18:37;12.50;88.10
63317;DHT22;49822;41.468;13.560;2023-03-08T07:21:05;12.80;87.00
63317;DHT22;49822;41.468;13.560;2023-03-08T07:23:33;13.00;86.70
63317;DHT22;49822;41.468;13.560;2023-03-08T07:26:07;13.10;86.30
63317;DHT22;49822;41.468;13.560;2023-03-08T07:28:35;13.20;86.30
63317;DHT22;49822;41.468;13.560;2023-03-08T07:31:03;13.30;86.50
63317;DHT22;49822;41.468;13.560;2023-03-08T07:33:30;13.40;86.50
63317;DHT22;49822;41.468;13.560;2023-03-08T07:35:59;13.50;86.60
63317;DHT22;49822;41.468;13.560;2023-03-08T07:38:29;13.60;86.40
63317;DHT22;49822;41.468;13.560;2023-03-08T07:40:57;13.70;86.20
63317;DHT22;49822;41.468;13.560;2023-03-08T07:43:24;13.60;86.30
63317;DHT22;49822;41.468;13.560;2023-03-08T07:46:03;13.50;86.00
63317;DHT22;49822;41.468;13.560;2023-03-08T07:48:32;13.60;85.90
63317;DHT22;49822;41.468;13.560;2023-03-08T07:51:03;13.60;86.10
63317;DHT22;49822;41.468;13.560;2023-03-08T07:53:34;13.70;85.60
63317;DHT22;49822;41.468;13.560;2023-03-08T07:56:02;13.80;85.80
63317;DHT22;49822;41.468;13.560;2023-03-08T07:58:30;13.90;85.40
63317;DHT22;49822;41.468;13.560;2023-03-08T08:00:57;13.90;85.60
63317;DHT22;49822;41.468;13.560;2023-03-08T08:03:25;13.90;85.30
63317;DHT22;49822;41.468;13.560;2023-03-08T08:05:54;14.00;85.50
63317;DHT22;49822;41.468;13.560;2023-03-08T08:08:22;14.10;84.40
63317;DHT22;49822;41.468;13.560;2023-03-08T08:10:50;14.10;84.50
63317;DHT22;49822;41.468;13.560;2023-03-08T08:13:17;14.00;83.10
63317;DHT22;49822;41.468;13.560;2023-03-08T08:15:45;14.00;83.60
63317;DHT22;49822;41.468;13.560;2023-03-08T08:18:13;14.20;84.10
63317;DHT22;49822;41.468;13.560;2023-03-08T08:20:40;14.40;84.50
63317;DHT22;49822;41.468;13.560;2023-03-08T08:23:08;14.50;84.30
63317;DHT22;49822;41.468;13.560;2023-03-08T08:25:38;14.70;83.90
63317;DHT22;49822;41.468;13.560;2023-03-08T08:28:05;14.80;84.00
63317;DHT22;49822;41.468;13.560;2023-03-08T08:30:33;15.00;84.40
63317;DHT22;49822;41.468;13.560;2023-03-08T08:33:03;15.10;83.90
63317;DHT22;49822;41.468;13.560;2023-03-08T08:35:30;15.20;83.70
63317;DHT22;49822;41.468;13.560;2023-03-08T08:38:08;15.30;83.80
63317;DHT22;49822;41.468;13.560;2023-03-08T08:40:36;15.40;83.90
63317;DHT22;49822;41.468;13.560;2023-03-08T08:43:03;15.40;84.00
63317;DHT22;49822;41.468;13.560;2023-03-08T08:45:31;15.50;83.70
63317;DHT22;49822;41.468;13.560;2023-03-08T08:48:02;15.50;83.20
63317;DHT22;49822;41.468;13.560;2023-03-08T08:50:29;15.60;83.40
63317;DHT22;49822;41.468;13.560;2023-03-08T08:52:57;15.50;83.10
63317;DHT22;49822;41.468;13.560;2023-03-08T08:55:27;15.60;82.60
63317;DHT22;49822;41.468;13.560;2023-03-08T08:57:55;15.60;82.20
63317;DHT22;49822;41.468;13.560;2023-03-08T09:00:24;15.70;82.30
63317;DHT22;49822;41.468;13.560;2023-03-08T09:02:55;15.90;82.10
63317;DHT22;49822;41.468;13.560;2023-03-08T09:05:22;16.10;81.80
63317;DHT22;49822;41.468;13.560;2023-03-08T09:07:55;15.90;81.30
63317;DHT22;49822;41.468;13.560;2023-03-08T09:10:26;15.80;81.70
63317;DHT22;49822;41.468;13.560;2023-03-08T09:12:54;15.80;82.10
63317;DHT22;49822;41.468;13.560;2023-03-08T09:15:26;15.70;82.50
63317;DHT22;49822;41.468;13.560;2023-03-08T09:17:55;15.70;82.10
63317;DHT22;49822;41.468;13.560;2023-03-08T09:20:23;15.80;81.80
63317;DHT22;49822;41.468;13.560;2023-03-08T09:22:50;15.70;81.50
63317;DHT22;49822;41.468;13.560;2023-03-08T09:25:18;15.60;81.20
63317;DHT22;49822;41.468;13.560;2023-03-08T09:27:50;15.60;81.30
63317;DHT22;49822;41.468;13.560;2023-03-08T09:30:19;15.60;81.00
63317;DHT22;49822;41.468;13.560;2023-03-08T09:32:51;15.60;81.10
63317;DHT22;49822;41.468;13.560;2023-03-08T09:35:18;15.60;80.90
63317;DHT22;49822;41.468;13.560;2023-03-08T09:37:45;15.40;81.20
63317;DHT22;49822;41.468;13.560;2023-03-08T09:40:20;15.40;82.40
63317;DHT22;49822;41.468;13.560;2023-03-08T09:42:50;15.50;81.30
63317;DHT22;49822;41.468;13.560;2023-03-08T09:45:26;15.60;81.30
63317;DHT22;49822;41.468;13.560;2023-03-08T09:48:00;15.50;81.40
63317;DHT22;49822;41.468;13.560;2023-03-08T09:50:36;15.50;81.90
63317;DHT22;49822;41.468;13.560;2023-03-08T09:59:13;15.70;81.40
63317;DHT22;49822;41.468;13.560;2023-03-08T10:09:37;16.10;81.10
63317;DHT22;49822;41.468;13.560;2023-03-08T10:12:32;16.20;80.90
63317;DHT22;49822;41.468;13.560;2023-03-08T10:15:09;16.10;80.70
63317;DHT22;49822;41.468;13.560;2023-03-08T10:17:52;16.10;81.20
63317;DHT22;49822;41.468;13.560;2023-03-08T10:20:33;16.10;81.20
63317;DHT22;49822;41.468;13.560;2023-03-08T10:23:17;16.30;80.80
63317;DHT22;49822;41.468;13.560;2023-03-08T10:25:46;16.30;81.20
63317;DHT22;49822;41.468;13.560;2023-03-08T10:28:17;16.30;82.10
63317;DHT22;49822;41.468;13.560;2023-03-08T10:30:51;16.70;80.80
63317;DHT22;49822;41.468;13.560;2023-03-08T10:33:22;17.00;80.80
63317;DHT22;49822;41.468;13.560;2023-03-08T10:36:01;17.30;80.00
63317;DHT22;49822;41.468;13.560;2023-03-08T10:38:33;17.70;80.20
63317;DHT22;49822;41.468;13.560;2023-03-08T10:41:09;17.80;79.70
63317;DHT22;49822;41.468;13.560;2023-03-08T10:43:44;17.90;79.00
63317;DHT22;49822;41.468;13.560;2023-03-08T10:46:16;17.80;78.40
63317;DHT22;49822;41.468;13.560;2023-03-08T10:48:45;17.60;78.60
63317;DHT22;49822;41.468;13.560;2023-03-08T10:51:25;17.40;78.90
63317;DHT22;49822;41.468;13.560;2023-03-08T10:53:58;17.30;79.80
63317;DHT22;49822;41.468;13.560;2023-03-08T10:56:54;17.10;80.00
63317;DHT22;49822;41.468;13.560;2023-03-08T10:59:30;16.70;79.90
63317;DHT22;49822;41.468;13.560;2023-03-08T11:02:01;16.70;80.30
63317;DHT22;49822;41.468;13.560;2023-03-08T11:04:30;16.70;80.60
63317;DHT22;49822;41.468;13.560;2023-03-08T11:06:57;16.80;80.20
63317;DHT22;49822;41.468;13.560;2023-03-08T11:09:35;16.80;80.40
63317;DHT22;49822;41.468;13.560;2023-03-08T11:12:03;16.80;80.00
63317;DHT22;49822;41.468;13.560;2023-03-08T11:14:31;16.60;79.90
63317;DHT22;49822;41.468;13.560;2023-03-08T11:17:14;16.30;80.20
63317;DHT22;49822;41.468;13.560;2023-03-08T11:31:25;16.70;81.20
63317;DHT22;49822;41.468;13.560;2023-03-08T11:36:40;16.90;81.10
63317;DHT22;49822;41.468;13.560;2023-03-08T11:39:32;17.00;80.40
63317;DHT22;49822;41.468;13.560;2023-03-08T11:53:42;17.20;80.10
63317;DHT22;49822;41.468;13.560;2023-03-08T12:05:01;17.30;79.60
63317;DHT22;49822;41.468;13.560;2023-03-08T12:16:17;16.70;81.40
63317;DHT22;49822;41.468;13.560;2023-03-08T12:24:42;16.80;81.20
63317;DHT22;49822;41.468;13.560;2023-03-08T12:28:09;17.10;81.60
63317;DHT22;49822;41.468;13.560;2023-03-08T12:32:49;18.00;78.50
63317;DHT22;49822;41.468;13.560;2023-03-08T12:38:23;18.70;76.40
63317;DHT22;49822;41.468;13.560;2023-03-08T12:40:53;18.50;74.90
63317;DHT22;49822;41.468;13.560;2023-03-08T12:46:04;18.60;74.00
63317;DHT22;49822;41.468;13.560;2023-03-08T12:48:52;18.70;73.30
63317;DHT22;49822;41.468;13.560;2023-03-08T12:51:24;18.50;72.90
63317;DHT22;49822;41.468;13.560;2023-03-08T12:53:58;18.70;73.50
63317;DHT22;49822;41.468;13.560;2023-03-08T12:56:36;18.50;74.40
63317;DHT22;49822;41.468;13.560;2023-03-08T13:02:01;18.30;75.80
63317;DHT22;49822;41.468;13.560;2023-03-08T13:04:36;18.20;74.50
63317;DHT22;49822;41.468;13.560;2023-03-08T13:12:27;18.10;75.20
63317;DHT22;49822;41.468;13.560;2023-03-08T13:15:07;18.30;74.60
63317;DHT22;49822;41.468;13.560;2023-03-08T13:17:38;18.60;75.30
63317;DHT22;49822;41.468;13.560;2023-03-08T13:23:17;18.70;74.80
63317;DHT22;49822;41.468;13.560;2023-03-08T13:28:38;18.90;73.00
63317;DHT22;49822;41.468;13.560;2023-03-08T13:31:19;19.10;74.30
63317;DHT22;49822;41.468;13.560;2023-03-08T13:33:50;19.00;72.80
63317;DHT22;49822;41.468;13.560;2023-03-08T13:36:27;18.20;74.50
63317;DHT22;49822;41.468;13.560;2023-03-08T13:39:02;18.10;74.90
63317;DHT22;49822;41.468;13.560;2023-03-08T13:41:39;18.00;74.80
63317;DHT22;49822;41.468;13.560;2023-03-08T13:44:17;18.10;75.70
63317;DHT22;49822;41.468;13.560;2023-03-08T13:46:49;18.10;75.70
63317;DHT22;49822;41.468;13.560;2023-03-08T13:49:27;18.50;75.20
63317;DHT22;49822;41.468;13.560;2023-03-08T13:52:00;18.20;75.30
63317;DHT22;49822;41.468;13.560;2023-03-08T13:54:36;18.40;74.20
63317;DHT22;49822;41.468;13.560;2023-03-08T13:57:22;18.90;74.00
63317;DHT22;49822;41.468;13.560;2023-03-08T13:59:52;19.20;73.80
63317;DHT22;49822;41.468;13.560;2023-03-08T14:02:22;19.60;75.10
63317;DHT22;49822;41.468;13.560;2023-03-08T14:04:50;19.00;72.40
63317;DHT22;49822;41.468;13.560;2023-03-08T14:07:24;19.30;73.40
63317;DHT22;49822;41.468;13.560;2023-03-08T14:09:52;19.10;72.90
63317;DHT22;49822;41.468;13.560;2023-03-08T14:12:26;18.70;73.70
63317;DHT22;49822;41.468;13.560;2023-03-08T14:14:57;17.70;75.60
63317;DHT22;49822;41.468;13.560;2023-03-08T14:17:28;17.80;76.50
63317;DHT22;49822;41.468;13.560;2023-03-08T14:20:14;17.80;76.90
63317;DHT22;49822;41.468;13.560;2023-03-08T14:22:46;17.70;76.40
63317;DHT22;49822;41.468;13.560;2023-03-08T14:25:30;17.60;76.60
63317;DHT22;49822;41.468;13.560;2023-03-08T14:27:58;17.90;76.80
63317;DHT22;49822;41.468;13.560;2023-03-08T14:30:28;18.00;76.50
63317;DHT22;49822;41.468;13.560;2023-03-08T14:33:19;18.00;76.00
63317;DHT22;49822;41.468;13.560;2023-03-08T14:35:57;18.00;76.00
63317;DHT22;49822;41.468;13.560;2023-03-08T14:38:30;17.90;76.90
63317;DHT22;49822;41.468;13.560;2023-03-08T14:41:02;18.00;76.60
63317;DHT22;49822;41.468;13.560;2023-03-08T14:43:32;18.00;76.40
63317;DHT22;49822;41.468;13.560;2023-03-08T14:46:01;18.00;76.70
63317;DHT22;49822;41.468;13.560;2023-03-08T14:48:34;17.80;77.50
63317;DHT22;49822;41.468;13.560;2023-03-08T14:54:01;18.40;75.00
63317;DHT22;49822;41.468;13.560;2023-03-08T14:56:30;18.90;74.50
63317;DHT22;49822;41.468;13.560;2023-03-08T14:59:03;18.90;73.50
63317;DHT22;49822;41.468;13.560;2023-03-08T15:01:37;18.90;74.80
63317;DHT22;49822;41.468;13.560;2023-03-08T15:04:23;18.50;73.90
63317;DHT22;49822;41.468;13.560;2023-03-08T15:07:00;18.00;75.70
63317;DHT22;49822;41.468;13.560;2023-03-08T15:09:28;18.90;74.60
63317;DHT22;49822;41.468;13.560;2023-03-08T15:12:00;18.80;74.30
63317;DHT22;49822;41.468;13.560;2023-03-08T15:14:28;17.90;76.40
63317;DHT22;49822;41.468;13.560;2023-03-08T15:16:57;17.80;76.60
63317;DHT22;49822;41.468;13.560;2023-03-08T15:19:24;17.10;77.80
63317;DHT22;49822;41.468;13.560;2023-03-08T15:21:52;17.30;77.50
63317;DHT22;49822;41.468;13.560;2023-03-08T15:24:19;18.20;75.80
63317;DHT22;49822;41.468;13.560;2023-03-08T15:26:46;19.10;74.20
63317;DHT22;49822;41.468;13.560;2023-03-08T15:29:26;19.60;72.40
63317;DHT22;49822;41.468;13.560;2023-03-08T15:31:55;20.70;70.50
63317;DHT22;49822;41.468;13.560;2023-03-08T15:34:23;21.10;68.90
63317;DHT22;49822;41.468;13.560;2023-03-08T15:36:54;19.60;71.60
63317;DHT22;49822;41.468;13.560;2023-03-08T15:39:21;19.90;71.00
63317;DHT22;49822;41.468;13.560;2023-03-08T15:41:49;19.10;72.60
63317;DHT22;49822;41.468;13.560;2023-03-08T15:44:17;18.60;73.50
63317;DHT22;49822;41.468;13.560;2023-03-08T15:46:44;18.20;75.10
63317;DHT22;49822;41.468;13.560;2023-03-08T15:49:12;19.30;73.00
63317;DHT22;49822;41.468;13.560;2023-03-08T15:51:39;19.50;72.00
63317;DHT22;49822;41.468;13.560;2023-03-08T15:54:09;18.30;74.40
63317;DHT22;49822;41.468;13.560;2023-03-08T15:56:37;17.60;76.60
63317;DHT22;49822;41.468;13.560;2023-03-08T15:59:04;18.00;75.70
63317;DHT22;49822;41.468;13.560;2023-03-08T16:01:32;17.70;76.20
63317;DHT22;49822;41.468;13.560;2023-03-08T16:03:59;17.40;76.90
63317;DHT22;49822;41.468;13.560;2023-03-08T16:06:27;16.50;78.40
63317;DHT22;49822;41.468;13.560;2023-03-08T16:08:57;16.60;78.30
63317;DHT22;49822;41.468;13.560;2023-03-08T16:11:25;16.10;79.50
63317;DHT22;49822;41.468;13.560;2023-03-08T16:13:52;15.90;80.10
63317;DHT22;49822;41.468;13.560;2023-03-08T16:16:20;16.10;79.30
63317;DHT22;49822;41.468;13.560;2023-03-08T16:18:47;15.90;79.80
63317;DHT22;49822;41.468;13.560;2023-03-08T16:21:15;15.70;80.10
63317;DHT22;49822;41.468;13.560;2023-03-08T16:23:45;15.50;80.60
63317;DHT22;49822;41.468;13.560;2023-03-08T16:26:14;15.60;80.30
63317;DHT22;49822;41.468;13.560;2023-03-08T16:28:45;15.50;80.60
63317;DHT22;49822;41.468;13.560;2023-03-08T16:31:14;15.50;80.50
63317;DHT22;49822;41.468;13.560;2023-03-08T16:33:42;15.40;81.20
63317;DHT22;49822;41.468;13.560;2023-03-08T16:36:11;15.30;82.10
63317;DHT22;49822;41.468;13.560;2023-03-08T16:38:40;15.10;82.30
63317;DHT22;49822;41.468;13.560;2023-03-08T16:41:07;15.20;82.20
63317;DHT22;49822;41.468;13.560;2023-03-08T16:43:41;14.90;83.20
63317;DHT22;49822;41.468;13.560;2023-03-08T16:46:21;15.00;83.20
63317;DHT22;49822;41.468;13.560;2023-03-08T16:49:29;14.90;83.50
63317;DHT22;49822;41.468;13.560;2023-03-08T16:52:35;14.80;83.80
63317;DHT22;49822;41.468;13.560;2023-03-08T16:55:36;14.80;84.30
63317;DHT22;49822;41.468;13.560;2023-03-08T16:58:04;14.70;84.30
63317;DHT22;49822;41.468;13.560;2023-03-08T17:00:33;14.70;84.30
63317;DHT22;49822;41.468;13.560;2023-03-08T17:03:02;14.70;84.10
63317;DHT22;49822;41.468;13.560;2023-03-08T17:05:30;14.80;83.60
63317;DHT22;49822;41.468;13.560;2023-03-08T17:07:58;14.70;83.70
63317;DHT22;49822;41.468;13.560;2023-03-08T17:10:25;14.70;83.80